Página principal
METAR-TAF:

METAR-TAF

Aeroportos :

Kashmar, Irão

latitude: 35-16-14N, longitude: 58-28-24E, altura: 1110 m

Observação actual do tempo

O boletim foi feito há 30 minutos, às 02:00 UTC
Vento calmo
Temperatura 17°C
Humidade 63%
Pressão 1013 hPa
Visibilidade 10 km ou mais
Nuvens dispersasa uma altura de 4000 ft
Nuvens fragmentadasa uma altura de 10000 ft

METAR: OIMQ 190200Z 00000KT 9999 SCT040 BKN100 17/10 Q1013

Hora: 07:00 (02:30 UTC)


TAF: em falta

Observações e previsões do tempo de mais de 4000 aeroportos (mensagens METAR e TAF).

As estações disponíveis são os pontos amarelos e vermelhos sobre o mapa.

Mova o rato sobre o mapa para ver o nome da estação.

Depois clique no ponto para visualizar as observações e previsões meteorológicas.

Para alterar o mapa : clique nos botões verdes com uma cruz preta para aumentar o zoom; no botão verde com uma pitada de zoom; ou nas setas verdes para mapas adjacentes.


METAR-TAF: